sensor_id;sensor_type;location;lat;lon;timestamp;P1;durP1;ratioP1;P2;durP2;ratioP2
42194;SDS011;27863;49.440;11.102;2023-12-20T00:00:31;5.87;;;4.73;;
42194;SDS011;27863;49.440;11.102;2023-12-20T00:03:32;5.00;;;4.53;;
42194;SDS011;27863;49.440;11.102;2023-12-20T00:06:32;6.20;;;5.20;;
42194;SDS011;27863;49.440;11.102;2023-12-20T00:09:33;5.63;;;4.23;;
42194;SDS011;27863;49.440;11.102;2023-12-20T00:12:33;6.10;;;4.13;;
42194;SDS011;27863;49.440;11.102;2023-12-20T00:15:34;4.70;;;4.27;;
42194;SDS011;27863;49.440;11.102;2023-12-20T00:18:34;7.83;;;4.03;;
42194;SDS011;27863;49.440;11.102;2023-12-20T00:21:35;4.07;;;3.77;;
42194;SDS011;27863;49.440;11.102;2023-12-20T00:24:35;6.10;;;4.17;;
42194;SDS011;27863;49.440;11.102;2023-12-20T00:27:36;4.17;;;3.77;;
42194;SDS011;27863;49.440;11.102;2023-12-20T00:30:36;4.13;;;3.27;;
42194;SDS011;27863;49.440;11.102;2023-12-20T00:33:37;4.70;;;4.13;;
42194;SDS011;27863;49.440;11.102;2023-12-20T00:36:37;4.73;;;3.60;;
42194;SDS011;27863;49.440;11.102;2023-12-20T00:39:38;5.10;;;3.67;;
42194;SDS011;27863;49.440;11.102;2023-12-20T00:42:38;3.93;;;3.63;;
42194;SDS011;27863;49.440;11.102;2023-12-20T00:45:39;3.97;;;3.67;;
42194;SDS011;27863;49.440;11.102;2023-12-20T00:48:39;3.90;;;3.50;;
42194;SDS011;27863;49.440;11.102;2023-12-20T00:51:42;3.60;;;3.30;;
42194;SDS011;27863;49.440;11.102;2023-12-20T00:54:42;4.43;;;3.80;;
42194;SDS011;27863;49.440;11.102;2023-12-20T00:57:43;3.43;;;3.13;;
42194;SDS011;27863;49.440;11.102;2023-12-20T01:00:44;3.73;;;2.97;;
42194;SDS011;27863;49.440;11.102;2023-12-20T01:03:44;3.20;;;2.97;;
42194;SDS011;27863;49.440;11.102;2023-12-20T01:06:46;4.37;;;3.07;;
42194;SDS011;27863;49.440;11.102;2023-12-20T01:09:46;3.50;;;3.20;;
42194;SDS011;27863;49.440;11.102;2023-12-20T01:12:47;3.40;;;3.10;;
42194;SDS011;27863;49.440;11.102;2023-12-20T01:15:47;3.50;;;3.20;;
42194;SDS011;27863;49.440;11.102;2023-12-20T01:18:48;5.20;;;3.60;;
42194;SDS011;27863;49.440;11.102;2023-12-20T01:21:49;3.67;;;2.77;;
42194;SDS011;27863;49.440;11.102;2023-12-20T01:24:49;5.87;;;3.87;;
42194;SDS011;27863;49.440;11.102;2023-12-20T01:27:50;3.20;;;3.00;;
42194;SDS011;27863;49.440;11.102;2023-12-20T01:30:50;2.53;;;2.33;;
42194;SDS011;27863;49.440;11.102;2023-12-20T01:33:51;2.50;;;2.30;;
42194;SDS011;27863;49.440;11.102;2023-12-20T01:36:51;2.70;;;2.50;;
42194;SDS011;27863;49.440;11.102;2023-12-20T01:39:52;4.80;;;2.57;;
42194;SDS011;27863;49.440;11.102;2023-12-20T01:43:06;2.00;;;1.80;;
42194;SDS011;27863;49.440;11.102;2023-12-20T01:46:08;2.00;;;1.80;;
42194;SDS011;27863;49.440;11.102;2023-12-20T01:49:09;1.70;;;1.60;;
42194;SDS011;27863;49.440;11.102;2023-12-20T01:52:09;2.30;;;1.60;;
42194;SDS011;27863;49.440;11.102;2023-12-20T01:55:10;1.30;;;1.20;;
42194;SDS011;27863;49.440;11.102;2023-12-20T01:58:14;1.57;;;1.30;;
42194;SDS011;27863;49.440;11.102;2023-12-20T02:01:15;1.00;;;0.90;;
42194;SDS011;27863;49.440;11.102;2023-12-20T02:04:16;1.20;;;1.00;;
42194;SDS011;27863;49.440;11.102;2023-12-20T02:07:18;1.10;;;1.00;;
42194;SDS011;27863;49.440;11.102;2023-12-20T02:10:19;1.37;;;1.27;;
42194;SDS011;27863;49.440;11.102;2023-12-20T02:13:19;1.70;;;1.43;;
42194;SDS011;27863;49.440;11.102;2023-12-20T02:16:21;2.17;;;1.07;;
42194;SDS011;27863;49.440;11.102;2023-12-20T02:19:22;1.53;;;0.80;;
42194;SDS011;27863;49.440;11.102;2023-12-20T02:22:22;0.87;;;0.70;;
42194;SDS011;27863;49.440;11.102;2023-12-20T02:25:22;0.67;;;0.63;;
42194;SDS011;27863;49.440;11.102;2023-12-20T02:28:23;0.60;;;0.60;;
42194;SDS011;27863;49.440;11.102;2023-12-20T02:31:24;0.87;;;0.60;;
42194;SDS011;27863;49.440;11.102;2023-12-20T02:34:25;1.57;;;0.70;;
42194;SDS011;27863;49.440;11.102;2023-12-20T02:37:25;0.60;;;0.60;;
42194;SDS011;27863;49.440;11.102;2023-12-20T02:40:26;0.60;;;0.60;;
42194;SDS011;27863;49.440;11.102;2023-12-20T02:43:26;0.70;;;0.70;;
42194;SDS011;27863;49.440;11.102;2023-12-20T02:46:27;0.50;;;0.50;;
42194;SDS011;27863;49.440;11.102;2023-12-20T02:49:27;0.60;;;0.60;;
42194;SDS011;27863;49.440;11.102;2023-12-20T02:52:28;0.50;;;0.50;;
42194;SDS011;27863;49.440;11.102;2023-12-20T02:55:29;0.70;;;0.60;;
42194;SDS011;27863;49.440;11.102;2023-12-20T02:58:29;0.50;;;0.50;;
42194;SDS011;27863;49.440;11.102;2023-12-20T03:01:30;0.30;;;0.30;;
42194;SDS011;27863;49.440;11.102;2023-12-20T03:04:30;0.67;;;0.50;;
42194;SDS011;27863;49.440;11.102;2023-12-20T03:07:31;0.60;;;0.60;;
42194;SDS011;27863;49.440;11.102;2023-12-20T03:10:31;0.43;;;0.33;;
42194;SDS011;27863;49.440;11.102;2023-12-20T03:13:32;0.50;;;0.50;;
42194;SDS011;27863;49.440;11.102;2023-12-20T03:16:32;0.83;;;0.57;;
42194;SDS011;27863;49.440;11.102;2023-12-20T03:19:33;0.80;;;0.60;;
42194;SDS011;27863;49.440;11.102;2023-12-20T03:22:33;0.40;;;0.40;;
42194;SDS011;27863;49.440;11.102;2023-12-20T03:25:34;0.47;;;0.47;;
42194;SDS011;27863;49.440;11.102;2023-12-20T03:28:35;0.70;;;0.70;;
42194;SDS011;27863;49.440;11.102;2023-12-20T03:31:36;0.60;;;0.50;;
42194;SDS011;27863;49.440;11.102;2023-12-20T03:34:36;0.73;;;0.73;;
42194;SDS011;27863;49.440;11.102;2023-12-20T03:37:37;0.63;;;0.63;;
42194;SDS011;27863;49.440;11.102;2023-12-20T03:40:38;0.57;;;0.40;;
42194;SDS011;27863;49.440;11.102;2023-12-20T03:43:39;0.63;;;0.63;;
42194;SDS011;27863;49.440;11.102;2023-12-20T03:46:39;0.50;;;0.50;;
42194;SDS011;27863;49.440;11.102;2023-12-20T03:49:40;0.93;;;0.63;;
42194;SDS011;27863;49.440;11.102;2023-12-20T03:52:41;0.50;;;0.50;;
42194;SDS011;27863;49.440;11.102;2023-12-20T03:55:41;0.60;;;0.60;;
42194;SDS011;27863;49.440;11.102;2023-12-20T03:58:42;0.80;;;0.80;;
42194;SDS011;27863;49.440;11.102;2023-12-20T04:01:43;0.97;;;0.60;;
42194;SDS011;27863;49.440;11.102;2023-12-20T04:04:44;0.70;;;0.70;;
42194;SDS011;27863;49.440;11.102;2023-12-20T04:07:45;0.80;;;0.80;;
42194;SDS011;27863;49.440;11.102;2023-12-20T04:10:45;0.80;;;0.60;;
42194;SDS011;27863;49.440;11.102;2023-12-20T04:13:46;0.83;;;0.83;;
42194;SDS011;27863;49.440;11.102;2023-12-20T04:16:47;0.83;;;0.83;;
42194;SDS011;27863;49.440;11.102;2023-12-20T04:19:47;0.83;;;0.83;;
42194;SDS011;27863;49.440;11.102;2023-12-20T04:22:47;0.80;;;0.80;;
42194;SDS011;27863;49.440;11.102;2023-12-20T04:25:48;1.00;;;1.00;;
42194;SDS011;27863;49.440;11.102;2023-12-20T04:28:48;0.87;;;0.73;;
42194;SDS011;27863;49.440;11.102;2023-12-20T04:31:49;0.90;;;0.90;;
42194;SDS011;27863;49.440;11.102;2023-12-20T04:34:51;1.23;;;1.00;;
42194;SDS011;27863;49.440;11.102;2023-12-20T04:37:51;0.80;;;0.80;;
42194;SDS011;27863;49.440;11.102;2023-12-20T04:40:52;0.80;;;0.80;;
42194;SDS011;27863;49.440;11.102;2023-12-20T04:43:52;0.90;;;0.90;;
42194;SDS011;27863;49.440;11.102;2023-12-20T04:46:53;1.20;;;1.10;;
42194;SDS011;27863;49.440;11.102;2023-12-20T04:49:54;1.27;;;1.00;;
42194;SDS011;27863;49.440;11.102;2023-12-20T04:52:54;1.03;;;0.93;;
42194;SDS011;27863;49.440;11.102;2023-12-20T04:55:55;1.33;;;1.23;;
42194;SDS011;27863;49.440;11.102;2023-12-20T04:58:55;1.17;;;1.07;;
42194;SDS011;27863;49.440;11.102;2023-12-20T05:01:56;1.30;;;1.20;;
42194;SDS011;27863;49.440;11.102;2023-12-20T05:04:57;1.30;;;1.20;;
42194;SDS011;27863;49.440;11.102;2023-12-20T05:07:58;1.17;;;1.07;;
42194;SDS011;27863;49.440;11.102;2023-12-20T05:10:58;1.10;;;1.00;;
42194;SDS011;27863;49.440;11.102;2023-12-20T05:13:59;1.17;;;1.07;;
42194;SDS011;27863;49.440;11.102;2023-12-20T05:16:59;1.30;;;1.20;;
42194;SDS011;27863;49.440;11.102;2023-12-20T05:20:00;0.80;;;0.80;;
42194;SDS011;27863;49.440;11.102;2023-12-20T05:23:01;1.10;;;1.00;;
42194;SDS011;27863;49.440;11.102;2023-12-20T05:26:01;1.97;;;1.87;;
42194;SDS011;27863;49.440;11.102;2023-12-20T05:29:01;0.90;;;0.90;;
42194;SDS011;27863;49.440;11.102;2023-12-20T05:32:03;1.10;;;1.00;;
42194;SDS011;27863;49.440;11.102;2023-12-20T05:35:04;0.60;;;0.60;;
42194;SDS011;27863;49.440;11.102;2023-12-20T05:38:05;1.03;;;0.93;;
42194;SDS011;27863;49.440;11.102;2023-12-20T05:41:06;0.77;;;0.73;;
42194;SDS011;27863;49.440;11.102;2023-12-20T05:44:07;0.87;;;0.87;;
42194;SDS011;27863;49.440;11.102;2023-12-20T05:47:07;0.77;;;0.77;;
42194;SDS011;27863;49.440;11.102;2023-12-20T05:50:08;1.10;;;1.00;;
42194;SDS011;27863;49.440;11.102;2023-12-20T05:53:09;1.77;;;0.80;;
42194;SDS011;27863;49.440;11.102;2023-12-20T05:56:09;0.90;;;0.80;;
42194;SDS011;27863;49.440;11.102;2023-12-20T05:59:10;0.90;;;0.90;;
42194;SDS011;27863;49.440;11.102;2023-12-20T06:02:11;1.10;;;1.00;;
42194;SDS011;27863;49.440;11.102;2023-12-20T06:05:11;0.80;;;0.80;;
42194;SDS011;27863;49.440;11.102;2023-12-20T06:08:12;1.20;;;1.10;;
42194;SDS011;27863;49.440;11.102;2023-12-20T06:11:13;0.90;;;0.80;;
42194;SDS011;27863;49.440;11.102;2023-12-20T06:14:15;5.47;;;1.10;;
42194;SDS011;27863;49.440;11.102;2023-12-20T06:17:15;1.40;;;1.27;;
42194;SDS011;27863;49.440;11.102;2023-12-20T06:20:16;2.23;;;1.10;;
42194;SDS011;27863;49.440;11.102;2023-12-20T06:23:17;1.57;;;1.07;;
42194;SDS011;27863;49.440;11.102;2023-12-20T06:26:17;1.70;;;1.30;;
42194;SDS011;27863;49.440;11.102;2023-12-20T06:29:18;1.83;;;1.13;;
42194;SDS011;27863;49.440;11.102;2023-12-20T06:32:18;1.20;;;1.10;;
42194;SDS011;27863;49.440;11.102;2023-12-20T06:35:18;2.03;;;1.30;;
42194;SDS011;27863;49.440;11.102;2023-12-20T06:38:20;1.60;;;1.50;;
42194;SDS011;27863;49.440;11.102;2023-12-20T06:41:20;1.40;;;1.30;;
42194;SDS011;27863;49.440;11.102;2023-12-20T06:44:21;1.33;;;1.07;;
42194;SDS011;27863;49.440;11.102;2023-12-20T06:47:21;1.40;;;1.30;;
42194;SDS011;27863;49.440;11.102;2023-12-20T06:50:22;1.67;;;1.57;;
42194;SDS011;27863;49.440;11.102;2023-12-20T06:53:22;1.50;;;1.40;;
42194;SDS011;27863;49.440;11.102;2023-12-20T06:56:23;2.20;;;2.10;;
42194;SDS011;27863;49.440;11.102;2023-12-20T06:59:23;1.97;;;1.87;;
42194;SDS011;27863;49.440;11.102;2023-12-20T07:02:25;1.70;;;1.60;;
42194;SDS011;27863;49.440;11.102;2023-12-20T07:05:25;2.77;;;2.07;;
42194;SDS011;27863;49.440;11.102;2023-12-20T07:08:26;2.27;;;1.87;;
42194;SDS011;27863;49.440;11.102;2023-12-20T07:11:27;2.30;;;2.10;;
42194;SDS011;27863;49.440;11.102;2023-12-20T07:14:28;2.10;;;1.90;;
42194;SDS011;27863;49.440;11.102;2023-12-20T07:17:29;2.23;;;2.03;;
42194;SDS011;27863;49.440;11.102;2023-12-20T07:20:29;2.40;;;2.30;;
42194;SDS011;27863;49.440;11.102;2023-12-20T07:23:30;2.33;;;2.13;;
42194;SDS011;27863;49.440;11.102;2023-12-20T07:26:31;2.57;;;2.37;;
42194;SDS011;27863;49.440;11.102;2023-12-20T07:29:31;3.83;;;3.37;;
42194;SDS011;27863;49.440;11.102;2023-12-20T07:32:32;4.87;;;4.37;;
42194;SDS011;27863;49.440;11.102;2023-12-20T07:35:32;3.00;;;2.80;;
42194;SDS011;27863;49.440;11.102;2023-12-20T07:38:33;2.70;;;2.50;;
42194;SDS011;27863;49.440;11.102;2023-12-20T07:41:34;4.43;;;4.13;;
42194;SDS011;27863;49.440;11.102;2023-12-20T07:44:34;4.13;;;3.83;;
42194;SDS011;27863;49.440;11.102;2023-12-20T07:47:40;7.07;;;6.37;;
42194;SDS011;27863;49.440;11.102;2023-12-20T07:50:41;4.87;;;4.47;;
42194;SDS011;27863;49.440;11.102;2023-12-20T07:53:42;3.20;;;3.00;;
42194;SDS011;27863;49.440;11.102;2023-12-20T07:56:43;4.00;;;3.57;;
42194;SDS011;27863;49.440;11.102;2023-12-20T07:59:43;3.33;;;3.13;;
42194;SDS011;27863;49.440;11.102;2023-12-20T08:02:44;3.00;;;2.77;;
42194;SDS011;27863;49.440;11.102;2023-12-20T08:05:45;3.87;;;3.57;;
42194;SDS011;27863;49.440;11.102;2023-12-20T08:08:45;3.37;;;3.07;;
42194;SDS011;27863;49.440;11.102;2023-12-20T08:11:49;3.83;;;3.53;;
42194;SDS011;27863;49.440;11.102;2023-12-20T08:14:49;3.37;;;3.00;;
42194;SDS011;27863;49.440;11.102;2023-12-20T08:17:51;3.50;;;3.20;;
42194;SDS011;27863;49.440;11.102;2023-12-20T08:20:52;3.80;;;3.40;;
42194;SDS011;27863;49.440;11.102;2023-12-20T08:23:54;3.37;;;3.17;;
42194;SDS011;27863;49.440;11.102;2023-12-20T08:26:54;3.73;;;2.93;;
42194;SDS011;27863;49.440;11.102;2023-12-20T08:29:55;3.90;;;2.87;;
42194;SDS011;27863;49.440;11.102;2023-12-20T08:32:55;3.00;;;2.80;;
42194;SDS011;27863;49.440;11.102;2023-12-20T08:35:56;3.40;;;3.10;;
42194;SDS011;27863;49.440;11.102;2023-12-20T08:38:57;3.03;;;2.73;;
42194;SDS011;27863;49.440;11.102;2023-12-20T08:41:57;2.83;;;2.63;;
42194;SDS011;27863;49.440;11.102;2023-12-20T08:44:58;4.63;;;2.50;;
42194;SDS011;27863;49.440;11.102;2023-12-20T08:47:59;2.87;;;2.00;;
42194;SDS011;27863;49.440;11.102;2023-12-20T08:51:00;2.30;;;2.10;;
42194;SDS011;27863;49.440;11.102;2023-12-20T08:54:00;2.40;;;2.20;;
42194;SDS011;27863;49.440;11.102;2023-12-20T08:57:01;2.17;;;1.97;;
42194;SDS011;27863;49.440;11.102;2023-12-20T09:00:01;2.43;;;1.63;;
42194;SDS011;27863;49.440;11.102;2023-12-20T09:03:04;1.63;;;1.53;;
42194;SDS011;27863;49.440;11.102;2023-12-20T09:06:05;1.93;;;1.83;;
42194;SDS011;27863;49.440;11.102;2023-12-20T09:09:06;2.93;;;2.07;;
42194;SDS011;27863;49.440;11.102;2023-12-20T09:12:09;2.40;;;2.20;;
42194;SDS011;27863;49.440;11.102;2023-12-20T09:15:09;3.00;;;2.60;;
42194;SDS011;27863;49.440;11.102;2023-12-20T09:18:10;1.50;;;1.40;;
42194;SDS011;27863;49.440;11.102;2023-12-20T09:21:10;1.97;;;1.83;;
42194;SDS011;27863;49.440;11.102;2023-12-20T09:24:11;1.53;;;1.43;;
42194;SDS011;27863;49.440;11.102;2023-12-20T09:27:11;2.27;;;2.00;;
42194;SDS011;27863;49.440;11.102;2023-12-20T09:30:12;2.67;;;2.40;;
42194;SDS011;27863;49.440;11.102;2023-12-20T09:33:12;2.43;;;1.90;;
42194;SDS011;27863;49.440;11.102;2023-12-20T09:36:14;3.73;;;3.33;;
42194;SDS011;27863;49.440;11.102;2023-12-20T09:39:15;1.77;;;1.67;;
42194;SDS011;27863;49.440;11.102;2023-12-20T09:42:29;2.30;;;2.10;;
42194;SDS011;27863;49.440;11.102;2023-12-20T09:45:34;2.07;;;1.40;;
42194;SDS011;27863;49.440;11.102;2023-12-20T09:48:34;2.80;;;1.63;;
42194;SDS011;27863;49.440;11.102;2023-12-20T09:51:36;2.00;;;1.73;;
42194;SDS011;27863;49.440;11.102;2023-12-20T09:54:37;1.67;;;1.50;;
42194;SDS011;27863;49.440;11.102;2023-12-20T09:57:38;2.00;;;1.90;;
42194;SDS011;27863;49.440;11.102;2023-12-20T10:00:39;1.53;;;1.17;;
42194;SDS011;27863;49.440;11.102;2023-12-20T10:03:40;1.70;;;1.30;;
42194;SDS011;27863;49.440;11.102;2023-12-20T10:06:41;1.40;;;1.20;;
42194;SDS011;27863;49.440;11.102;2023-12-20T10:09:42;4.60;;;1.60;;
42194;SDS011;27863;49.440;11.102;2023-12-20T10:16:04;2.40;;;1.77;;
42194;SDS011;27863;49.440;11.102;2023-12-20T10:19:07;3.00;;;1.60;;
42194;SDS011;27863;49.440;11.102;2023-12-20T10:22:08;3.53;;;1.50;;
42194;SDS011;27863;49.440;11.102;2023-12-20T10:25:14;1.67;;;1.57;;
42194;SDS011;27863;49.440;11.102;2023-12-20T10:28:15;3.13;;;1.47;;
42194;SDS011;27863;49.440;11.102;2023-12-20T10:34:32;2.40;;;1.07;;
42194;SDS011;27863;49.440;11.102;2023-12-20T10:37:36;1.73;;;1.30;;
42194;SDS011;27863;49.440;11.102;2023-12-20T10:40:37;2.40;;;1.70;;
42194;SDS011;27863;49.440;11.102;2023-12-20T10:43:38;1.97;;;1.33;;
42194;SDS011;27863;49.440;11.102;2023-12-20T10:46:39;2.73;;;1.30;;
42194;SDS011;27863;49.440;11.102;2023-12-20T10:49:40;1.37;;;1.27;;
42194;SDS011;27863;49.440;11.102;2023-12-20T10:52:44;2.13;;;1.20;;
42194;SDS011;27863;49.440;11.102;2023-12-20T10:55:44;3.90;;;1.27;;
42194;SDS011;27863;49.440;11.102;2023-12-20T10:58:46;1.20;;;1.10;;
42194;SDS011;27863;49.440;11.102;2023-12-20T11:01:50;2.47;;;1.40;;
42194;SDS011;27863;49.440;11.102;2023-12-20T11:05:06;2.83;;;1.27;;
42194;SDS011;27863;49.440;11.102;2023-12-20T11:12:48;1.60;;;1.20;;
42194;SDS011;27863;49.440;11.102;2023-12-20T11:15:21;4.93;;;1.10;;
42194;SDS011;27863;49.440;11.102;2023-12-20T11:18:28;2.50;;;1.37;;
42194;SDS011;27863;49.440;11.102;2023-12-20T11:21:31;4.23;;;1.47;;
42194;SDS011;27863;49.440;11.102;2023-12-20T11:24:32;1.07;;;0.97;;
42194;SDS011;27863;49.440;11.102;2023-12-20T11:27:34;2.57;;;1.27;;
42194;SDS011;27863;49.440;11.102;2023-12-20T11:33:48;2.43;;;1.00;;
42194;SDS011;27863;49.440;11.102;2023-12-20T11:36:49;3.97;;;1.63;;
42194;SDS011;27863;49.440;11.102;2023-12-20T11:40:00;1.47;;;1.10;;
42194;SDS011;27863;49.440;11.102;2023-12-20T11:43:03;5.77;;;2.00;;
42194;SDS011;27863;49.440;11.102;2023-12-20T11:46:07;4.60;;;1.20;;
42194;SDS011;27863;49.440;11.102;2023-12-20T11:49:09;2.20;;;1.00;;
42194;SDS011;27863;49.440;11.102;2023-12-20T11:52:11;1.13;;;1.03;;
42194;SDS011;27863;49.440;11.102;2023-12-20T11:55:12;3.63;;;1.40;;
42194;SDS011;27863;49.440;11.102;2023-12-20T11:58:13;3.27;;;1.47;;
42194;SDS011;27863;49.440;11.102;2023-12-20T12:01:13;1.93;;;1.60;;
42194;SDS011;27863;49.440;11.102;2023-12-20T12:04:14;1.60;;;1.50;;
42194;SDS011;27863;49.440;11.102;2023-12-20T12:07:15;3.37;;;1.53;;
42194;SDS011;27863;49.440;11.102;2023-12-20T12:10:16;2.33;;;1.50;;
42194;SDS011;27863;49.440;11.102;2023-12-20T12:13:16;2.70;;;1.33;;
42194;SDS011;27863;49.440;11.102;2023-12-20T12:16:17;2.47;;;1.47;;
42194;SDS011;27863;49.440;11.102;2023-12-20T12:19:24;2.63;;;2.40;;
42194;SDS011;27863;49.440;11.102;2023-12-20T12:22:25;1.67;;;1.53;;
42194;SDS011;27863;49.440;11.102;2023-12-20T12:25:31;1.97;;;1.63;;
42194;SDS011;27863;49.440;11.102;2023-12-20T12:28:39;5.30;;;2.37;;
42194;SDS011;27863;49.440;11.102;2023-12-20T12:31:41;3.03;;;1.87;;
42194;SDS011;27863;49.440;11.102;2023-12-20T12:34:41;1.67;;;1.57;;
42194;SDS011;27863;49.440;11.102;2023-12-20T12:37:42;4.63;;;1.83;;
42194;SDS011;27863;49.440;11.102;2023-12-20T12:40:44;1.70;;;1.50;;
42194;SDS011;27863;49.440;11.102;2023-12-20T12:43:45;2.60;;;1.50;;
42194;SDS011;27863;49.440;11.102;2023-12-20T12:46:46;1.60;;;1.10;;
42194;SDS011;27863;49.440;11.102;2023-12-20T12:49:46;3.00;;;1.77;;
42194;SDS011;27863;49.440;11.102;2023-12-20T12:52:47;2.90;;;2.20;;
42194;SDS011;27863;49.440;11.102;2023-12-20T12:55:47;3.33;;;2.20;;
42194;SDS011;27863;49.440;11.102;2023-12-20T12:58:48;2.80;;;1.67;;
42194;SDS011;27863;49.440;11.102;2023-12-20T13:01:48;5.90;;;5.07;;
42194;SDS011;27863;49.440;11.102;2023-12-20T13:04:49;3.90;;;1.80;;
42194;SDS011;27863;49.440;11.102;2023-12-20T13:07:49;2.50;;;1.40;;
42194;SDS011;27863;49.440;11.102;2023-12-20T13:10:50;2.47;;;1.60;;
42194;SDS011;27863;49.440;11.102;2023-12-20T13:13:51;2.53;;;1.30;;
42194;SDS011;27863;49.440;11.102;2023-12-20T13:16:51;1.93;;;1.50;;
42194;SDS011;27863;49.440;11.102;2023-12-20T13:19:53;2.07;;;1.10;;
42194;SDS011;27863;49.440;11.102;2023-12-20T13:22:54;2.23;;;1.50;;
42194;SDS011;27863;49.440;11.102;2023-12-20T13:25:54;2.63;;;1.40;;
42194;SDS011;27863;49.440;11.102;2023-12-20T13:28:55;2.30;;;1.10;;
42194;SDS011;27863;49.440;11.102;2023-12-20T13:31:55;1.77;;;1.10;;
42194;SDS011;27863;49.440;11.102;2023-12-20T13:34:59;1.20;;;0.97;;
42194;SDS011;27863;49.440;11.102;2023-12-20T13:38:00;2.10;;;0.87;;
42194;SDS011;27863;49.440;11.102;2023-12-20T13:41:00;1.80;;;1.07;;
42194;SDS011;27863;49.440;11.102;2023-12-20T13:44:01;2.87;;;1.20;;
42194;SDS011;27863;49.440;11.102;2023-12-20T13:47:03;2.33;;;1.20;;
42194;SDS011;27863;49.440;11.102;2023-12-20T13:50:04;1.37;;;0.90;;
42194;SDS011;27863;49.440;11.102;2023-12-20T13:53:06;3.47;;;1.40;;
42194;SDS011;27863;49.440;11.102;2023-12-20T13:56:06;3.20;;;1.10;;
42194;SDS011;27863;49.440;11.102;2023-12-20T13:59:07;2.27;;;1.53;;
42194;SDS011;27863;49.440;11.102;2023-12-20T14:02:07;2.80;;;2.40;;
42194;SDS011;27863;49.440;11.102;2023-12-20T14:05:11;3.07;;;1.70;;
42194;SDS011;27863;49.440;11.102;2023-12-20T14:08:11;3.73;;;1.83;;
42194;SDS011;27863;49.440;11.102;2023-12-20T14:11:13;3.10;;;1.50;;
42194;SDS011;27863;49.440;11.102;2023-12-20T14:14:15;1.73;;;1.40;;
42194;SDS011;27863;49.440;11.102;2023-12-20T14:17:16;2.23;;;1.77;;
42194;SDS011;27863;49.440;11.102;2023-12-20T14:20:18;2.47;;;1.93;;
42194;SDS011;27863;49.440;11.102;2023-12-20T14:23:19;2.10;;;1.67;;
42194;SDS011;27863;49.440;11.102;2023-12-20T14:26:20;5.70;;;2.27;;
42194;SDS011;27863;49.440;11.102;2023-12-20T14:29:20;1.33;;;1.07;;
42194;SDS011;27863;49.440;11.102;2023-12-20T14:32:21;4.87;;;1.60;;
42194;SDS011;27863;49.440;11.102;2023-12-20T14:35:21;2.63;;;1.90;;
42194;SDS011;27863;49.440;11.102;2023-12-20T14:38:22;4.07;;;1.87;;
42194;SDS011;27863;49.440;11.102;2023-12-20T14:41:24;9.83;;;8.53;;
42194;SDS011;27863;49.440;11.102;2023-12-20T14:44:24;3.53;;;2.60;;
42194;SDS011;27863;49.440;11.102;2023-12-20T14:47:25;4.33;;;2.60;;
42194;SDS011;27863;49.440;11.102;2023-12-20T14:50:27;2.93;;;2.70;;
42194;SDS011;27863;49.440;11.102;2023-12-20T14:53:29;2.17;;;1.63;;
42194;SDS011;27863;49.440;11.102;2023-12-20T14:56:30;5.20;;;2.23;;
42194;SDS011;27863;49.440;11.102;2023-12-20T14:59:31;3.30;;;1.97;;
42194;SDS011;27863;49.440;11.102;2023-12-20T15:02:32;5.43;;;2.20;;
42194;SDS011;27863;49.440;11.102;2023-12-20T15:05:32;2.43;;;1.90;;
42194;SDS011;27863;49.440;11.102;2023-12-20T15:08:33;5.77;;;2.40;;
42194;SDS011;27863;49.440;11.102;2023-12-20T15:11:34;2.87;;;1.80;;
42194;SDS011;27863;49.440;11.102;2023-12-20T15:14:35;2.43;;;1.97;;
42194;SDS011;27863;49.440;11.102;2023-12-20T15:17:39;5.63;;;1.83;;
42194;SDS011;27863;49.440;11.102;2023-12-20T15:20:42;2.23;;;1.60;;
42194;SDS011;27863;49.440;11.102;2023-12-20T15:23:43;3.07;;;2.10;;
42194;SDS011;27863;49.440;11.102;2023-12-20T15:26:55;3.97;;;2.27;;
42194;SDS011;27863;49.440;11.102;2023-12-20T15:29:56;1.90;;;1.67;;
42194;SDS011;27863;49.440;11.102;2023-12-20T15:32:57;2.60;;;1.87;;
42194;SDS011;27863;49.440;11.102;2023-12-20T15:35:58;4.37;;;2.60;;
42194;SDS011;27863;49.440;11.102;2023-12-20T15:38:58;3.53;;;2.40;;
42194;SDS011;27863;49.440;11.102;2023-12-20T15:41:59;2.67;;;2.03;;
42194;SDS011;27863;49.440;11.102;2023-12-20T15:45:00;3.03;;;2.67;;
42194;SDS011;27863;49.440;11.102;2023-12-20T15:48:03;9.90;;;3.40;;
42194;SDS011;27863;49.440;11.102;2023-12-20T15:51:10;3.97;;;2.63;;
42194;SDS011;27863;49.440;11.102;2023-12-20T15:54:10;4.10;;;2.67;;
42194;SDS011;27863;49.440;11.102;2023-12-20T15:57:11;5.77;;;3.70;;
42194;SDS011;27863;49.440;11.102;2023-12-20T16:00:11;7.50;;;5.40;;
42194;SDS011;27863;49.440;11.102;2023-12-20T16:03:13;2.30;;;1.97;;
42194;SDS011;27863;49.440;11.102;2023-12-20T16:06:13;5.33;;;2.67;;
42194;SDS011;27863;49.440;11.102;2023-12-20T16:09:14;1.93;;;1.77;;
42194;SDS011;27863;49.440;11.102;2023-12-20T16:12:15;3.70;;;1.87;;
42194;SDS011;27863;49.440;11.102;2023-12-20T16:15:17;3.13;;;2.20;;
42194;SDS011;27863;49.440;11.102;2023-12-20T16:18:19;3.03;;;2.60;;
42194;SDS011;27863;49.440;11.102;2023-12-20T16:21:20;3.80;;;2.60;;
42194;SDS011;27863;49.440;11.102;2023-12-20T16:24:22;4.80;;;2.87;;
42194;SDS011;27863;49.440;11.102;2023-12-20T16:27:23;9.27;;;3.10;;
42194;SDS011;27863;49.440;11.102;2023-12-20T16:30:23;3.73;;;3.20;;
42194;SDS011;27863;49.440;11.102;2023-12-20T16:33:23;4.93;;;2.70;;
42194;SDS011;27863;49.440;11.102;2023-12-20T16:36:24;9.03;;;3.63;;
42194;SDS011;27863;49.440;11.102;2023-12-20T16:39:25;5.90;;;4.10;;
42194;SDS011;27863;49.440;11.102;2023-12-20T16:42:25;4.17;;;2.67;;
42194;SDS011;27863;49.440;11.102;2023-12-20T16:45:26;5.30;;;2.77;;
42194;SDS011;27863;49.440;11.102;2023-12-20T16:48:28;4.00;;;2.30;;
42194;SDS011;27863;49.440;11.102;2023-12-20T16:51:28;6.20;;;2.20;;
42194;SDS011;27863;49.440;11.102;2023-12-20T16:54:30;3.70;;;1.97;;
42194;SDS011;27863;49.440;11.102;2023-12-20T16:57:32;5.00;;;2.20;;
42194;SDS011;27863;49.440;11.102;2023-12-20T17:00:35;3.87;;;1.93;;
42194;SDS011;27863;49.440;11.102;2023-12-20T17:03:37;4.13;;;3.57;;
42194;SDS011;27863;49.440;11.102;2023-12-20T17:06:37;2.73;;;2.33;;
42194;SDS011;27863;49.440;11.102;2023-12-20T17:09:40;3.17;;;2.23;;
42194;SDS011;27863;49.440;11.102;2023-12-20T17:12:40;2.13;;;1.90;;
42194;SDS011;27863;49.440;11.102;2023-12-20T17:15:41;4.67;;;2.10;;
42194;SDS011;27863;49.440;11.102;2023-12-20T17:18:42;5.37;;;2.20;;
42194;SDS011;27863;49.440;11.102;2023-12-20T17:21:48;2.43;;;1.97;;
42194;SDS011;27863;49.440;11.102;2023-12-20T17:24:51;3.17;;;2.57;;
42194;SDS011;27863;49.440;11.102;2023-12-20T17:27:51;10.53;;;5.37;;
42194;SDS011;27863;49.440;11.102;2023-12-20T17:30:51;5.77;;;3.50;;
42194;SDS011;27863;49.440;11.102;2023-12-20T17:33:52;8.07;;;3.97;;
42194;SDS011;27863;49.440;11.102;2023-12-20T17:36:54;4.43;;;3.33;;
42194;SDS011;27863;49.440;11.102;2023-12-20T17:39:55;5.40;;;2.60;;
42194;SDS011;27863;49.440;11.102;2023-12-20T17:42:57;3.43;;;2.30;;
42194;SDS011;27863;49.440;11.102;2023-12-20T17:45:59;3.93;;;2.50;;
42194;SDS011;27863;49.440;11.102;2023-12-20T17:48:59;4.63;;;2.77;;
42194;SDS011;27863;49.440;11.102;2023-12-20T17:52:01;2.33;;;1.60;;
42194;SDS011;27863;49.440;11.102;2023-12-20T17:55:01;5.90;;;1.93;;
42194;SDS011;27863;49.440;11.102;2023-12-20T17:58:03;5.80;;;2.40;;
42194;SDS011;27863;49.440;11.102;2023-12-20T18:01:04;10.27;;;2.40;;
42194;SDS011;27863;49.440;11.102;2023-12-20T18:04:04;3.03;;;2.23;;
42194;SDS011;27863;49.440;11.102;2023-12-20T18:07:04;5.87;;;2.40;;